sensor_id;sensor_type;location;lat;lon;timestamp;pressure;altitude;pressure_sealevel;temperature;humidity
54455;BME280;40364;52.270;10.546;2024-01-27T00:00:45;101943.91;;;24.29;27.56
54455;BME280;40364;52.270;10.546;2024-01-27T00:03:11;101948.50;;;21.63;30.63
54455;BME280;40364;52.270;10.546;2024-01-27T00:05:38;101938.72;;;20.51;31.77
54455;BME280;40364;52.270;10.546;2024-01-27T00:08:05;101938.44;;;20.83;31.01
54455;BME280;40364;52.270;10.546;2024-01-27T00:10:32;101950.72;;;23.09;28.37
54455;BME280;40364;52.270;10.546;2024-01-27T00:13:00;101938.94;;;22.56;29.65
54455;BME280;40364;52.270;10.546;2024-01-27T00:15:27;101950.53;;;22.81;28.20
54455;BME280;40364;52.270;10.546;2024-01-27T00:17:53;101946.53;;;22.89;28.65
54455;BME280;40364;52.270;10.546;2024-01-27T00:20:20;101956.47;;;23.24;27.49
54455;BME280;40364;52.270;10.546;2024-01-27T00:22:46;101958.53;;;23.30;27.95
54455;BME280;40364;52.270;10.546;2024-01-27T00:25:13;101947.53;;;21.52;30.52
54455;BME280;40364;52.270;10.546;2024-01-27T00:27:40;101955.69;;;23.30;28.36
54455;BME280;40364;52.270;10.546;2024-01-27T00:30:09;101955.25;;;25.29;26.26
54455;BME280;40364;52.270;10.546;2024-01-27T00:32:36;101950.19;;;23.62;27.21
54455;BME280;40364;52.270;10.546;2024-01-27T00:35:04;101946.13;;;23.63;27.53
54455;BME280;40364;52.270;10.546;2024-01-27T00:37:30;101958.84;;;23.98;27.14
54455;BME280;40364;52.270;10.546;2024-01-27T00:39:57;101960.16;;;24.32;26.72
54455;BME280;40364;52.270;10.546;2024-01-27T00:42:24;101971.22;;;20.84;30.58
54455;BME280;40364;52.270;10.546;2024-01-27T00:44:51;101978.81;;;24.19;26.80
54455;BME280;40364;52.270;10.546;2024-01-27T00:47:19;101955.31;;;25.04;26.35
54455;BME280;40364;52.270;10.546;2024-01-27T00:49:46;101974.66;;;21.83;29.25
54455;BME280;40364;52.270;10.546;2024-01-27T00:52:13;101964.03;;;21.76;29.20
54455;BME280;40364;52.270;10.546;2024-01-27T00:54:40;101974.13;;;22.44;29.09
54455;BME280;40364;52.270;10.546;2024-01-27T00:57:07;101972.59;;;22.13;28.88
54455;BME280;40364;52.270;10.546;2024-01-27T00:59:33;101969.47;;;23.25;27.84
54455;BME280;40364;52.270;10.546;2024-01-27T01:02:00;101975.69;;;23.44;28.15
54455;BME280;40364;52.270;10.546;2024-01-27T01:04:28;101973.25;;;23.43;28.55
54455;BME280;40364;52.270;10.546;2024-01-27T01:06:55;101979.31;;;21.35;31.06
54455;BME280;40364;52.270;10.546;2024-01-27T01:09:21;101975.06;;;22.59;29.39
54455;BME280;40364;52.270;10.546;2024-01-27T01:11:48;101974.97;;;22.08;29.99
54455;BME280;40364;52.270;10.546;2024-01-27T01:14:15;101963.81;;;22.73;29.03
54455;BME280;40364;52.270;10.546;2024-01-27T01:16:41;101963.00;;;21.02;31.52
54455;BME280;40364;52.270;10.546;2024-01-27T01:19:08;101965.63;;;23.54;28.39
54455;BME280;40364;52.270;10.546;2024-01-27T01:21:36;101963.25;;;21.79;31.07
54455;BME280;40364;52.270;10.546;2024-01-27T01:24:03;101955.19;;;22.59;29.37
54455;BME280;40364;52.270;10.546;2024-01-27T01:26:29;101970.34;;;20.80;31.80
54455;BME280;40364;52.270;10.546;2024-01-27T01:28:56;101956.41;;;20.94;31.71
54455;BME280;40364;52.270;10.546;2024-01-27T01:31:23;101966.34;;;20.58;32.35
54455;BME280;40364;52.270;10.546;2024-01-27T01:33:49;101965.28;;;20.93;31.77
54455;BME280;40364;52.270;10.546;2024-01-27T01:36:16;101967.41;;;20.73;32.08
54455;BME280;40364;52.270;10.546;2024-01-27T01:38:44;101962.97;;;20.98;32.43
54455;BME280;40364;52.270;10.546;2024-01-27T01:41:11;101967.47;;;20.76;31.85
54455;BME280;40364;52.270;10.546;2024-01-27T01:43:37;101959.47;;;21.35;31.28
54455;BME280;40364;52.270;10.546;2024-01-27T01:46:04;101971.75;;;21.46;30.74
54455;BME280;40364;52.270;10.546;2024-01-27T01:48:31;101981.53;;;19.31;33.47
54455;BME280;40364;52.270;10.546;2024-01-27T01:50:58;101986.03;;;20.74;32.28
54455;BME280;40364;52.270;10.546;2024-01-27T01:53:26;101987.72;;;20.56;32.18
54455;BME280;40364;52.270;10.546;2024-01-27T01:55:55;101994.94;;;23.69;29.24
54455;BME280;40364;52.270;10.546;2024-01-27T01:58:22;101996.72;;;20.61;32.29
54455;BME280;40364;52.270;10.546;2024-01-27T02:00:48;102002.03;;;22.02;30.50
54455;BME280;40364;52.270;10.546;2024-01-27T02:03:15;102004.69;;;21.88;30.68
54455;BME280;40364;52.270;10.546;2024-01-27T02:05:41;102000.31;;;22.27;30.20
54455;BME280;40364;52.270;10.546;2024-01-27T02:08:08;102008.44;;;22.73;29.64
54455;BME280;40364;52.270;10.546;2024-01-27T02:10:35;102016.13;;;21.08;31.93
54455;BME280;40364;52.270;10.546;2024-01-27T02:13:19;102014.59;;;23.30;29.25
54455;BME280;40364;52.270;10.546;2024-01-27T02:15:46;102020.75;;;22.43;30.26
54455;BME280;40364;52.270;10.546;2024-01-27T02:18:13;102028.84;;;22.41;30.28
54455;BME280;40364;52.270;10.546;2024-01-27T02:20:40;102029.63;;;21.18;31.99
54455;BME280;40364;52.270;10.546;2024-01-27T02:23:06;102034.97;;;21.50;31.25
54455;BME280;40364;52.270;10.546;2024-01-27T02:25:35;102045.72;;;22.27;31.22
54455;BME280;40364;52.270;10.546;2024-01-27T02:28:02;102041.09;;;22.12;31.07
54455;BME280;40364;52.270;10.546;2024-01-27T02:30:29;102045.63;;;22.57;30.22
54455;BME280;40364;52.270;10.546;2024-01-27T02:32:56;102052.53;;;21.89;31.69
54455;BME280;40364;52.270;10.546;2024-01-27T02:35:23;102064.66;;;20.00;34.66
54455;BME280;40364;52.270;10.546;2024-01-27T02:37:50;102057.09;;;21.14;32.52
54455;BME280;40364;52.270;10.546;2024-01-27T02:40:16;102068.22;;;20.16;34.20
54455;BME280;40364;52.270;10.546;2024-01-27T02:42:44;102072.28;;;22.45;31.45
54455;BME280;40364;52.270;10.546;2024-01-27T02:45:11;102071.44;;;22.08;31.51
54455;BME280;40364;52.270;10.546;2024-01-27T02:47:38;102074.91;;;21.38;32.60
54455;BME280;40364;52.270;10.546;2024-01-27T02:50:06;102080.91;;;21.33;33.03
54455;BME280;40364;52.270;10.546;2024-01-27T02:52:32;102089.66;;;20.36;34.02
54455;BME280;40364;52.270;10.546;2024-01-27T02:54:59;102086.22;;;21.64;32.00
54455;BME280;40364;52.270;10.546;2024-01-27T02:57:26;102088.16;;;19.84;34.35
54455;BME280;40364;52.270;10.546;2024-01-27T02:59:54;102099.81;;;21.25;33.70
54455;BME280;40364;52.270;10.546;2024-01-27T03:02:21;102096.94;;;20.79;33.18
54455;BME280;40364;52.270;10.546;2024-01-27T03:04:47;102094.84;;;20.54;33.68
54455;BME280;40364;52.270;10.546;2024-01-27T03:07:14;102103.31;;;20.73;33.01
54455;BME280;40364;52.270;10.546;2024-01-27T03:09:40;102093.22;;;20.52;33.19
54455;BME280;40364;52.270;10.546;2024-01-27T03:12:07;102091.09;;;21.14;32.54
54455;BME280;40364;52.270;10.546;2024-01-27T03:14:34;102089.44;;;20.45;32.94
54455;BME280;40364;52.270;10.546;2024-01-27T03:17:02;102093.00;;;20.03;34.20
54455;BME280;40364;52.270;10.546;2024-01-27T03:19:29;102093.03;;;20.42;33.32
54455;BME280;40364;52.270;10.546;2024-01-27T03:21:55;102104.88;;;20.93;32.74
54455;BME280;40364;52.270;10.546;2024-01-27T03:24:22;102098.88;;;18.93;35.63
54455;BME280;40364;52.270;10.546;2024-01-27T03:26:49;102105.09;;;19.65;34.74
54455;BME280;40364;52.270;10.546;2024-01-27T03:29:16;102103.13;;;21.57;32.30
54455;BME280;40364;52.270;10.546;2024-01-27T03:31:42;102092.84;;;21.75;31.66
54455;BME280;40364;52.270;10.546;2024-01-27T03:34:10;102094.81;;;22.28;31.10
54455;BME280;40364;52.270;10.546;2024-01-27T03:36:37;102103.91;;;21.54;31.09
54455;BME280;40364;52.270;10.546;2024-01-27T03:39:03;102115.00;;;21.93;31.42
54455;BME280;40364;52.270;10.546;2024-01-27T03:41:30;102112.56;;;23.43;29.26
54455;BME280;40364;52.270;10.546;2024-01-27T03:43:56;102116.09;;;22.81;29.88
54455;BME280;40364;52.270;10.546;2024-01-27T03:46:23;102122.25;;;21.90;30.92
54455;BME280;40364;52.270;10.546;2024-01-27T03:48:50;102129.09;;;20.68;32.61
54455;BME280;40364;52.270;10.546;2024-01-27T03:51:19;102130.44;;;21.19;32.78
54455;BME280;40364;52.270;10.546;2024-01-27T03:53:45;102127.09;;;21.90;31.27
54455;BME280;40364;52.270;10.546;2024-01-27T03:56:12;102130.81;;;21.94;31.03
54455;BME280;40364;52.270;10.546;2024-01-27T03:58:39;102141.78;;;20.55;32.76
54455;BME280;40364;52.270;10.546;2024-01-27T04:01:06;102128.91;;;22.01;30.93
54455;BME280;40364;52.270;10.546;2024-01-27T04:03:33;102137.03;;;22.03;30.41
54455;BME280;40364;52.270;10.546;2024-01-27T04:05:59;102141.41;;;22.97;29.11
54455;BME280;40364;52.270;10.546;2024-01-27T04:08:29;102133.66;;;21.94;31.94
54455;BME280;40364;52.270;10.546;2024-01-27T04:10:55;102139.91;;;21.04;32.31
54455;BME280;40364;52.270;10.546;2024-01-27T04:13:22;102138.47;;;21.37;31.61
54455;BME280;40364;52.270;10.546;2024-01-27T04:15:49;102141.47;;;20.02;33.57
54455;BME280;40364;52.270;10.546;2024-01-27T04:18:16;102134.53;;;21.71;30.84
54455;BME280;40364;52.270;10.546;2024-01-27T04:20:43;102144.22;;;20.56;32.94
54455;BME280;40364;52.270;10.546;2024-01-27T04:23:11;102146.09;;;21.13;32.17
54455;BME280;40364;52.270;10.546;2024-01-27T04:25:39;102145.78;;;21.64;32.40
54455;BME280;40364;52.270;10.546;2024-01-27T04:28:06;102153.31;;;21.07;31.94
54455;BME280;40364;52.270;10.546;2024-01-27T04:30:34;102144.59;;;21.65;31.30
54455;BME280;40364;52.270;10.546;2024-01-27T04:33:01;102142.69;;;21.24;31.75
54455;BME280;40364;52.270;10.546;2024-01-27T04:35:28;102141.47;;;21.25;31.95
54455;BME280;40364;52.270;10.546;2024-01-27T04:37:54;102135.28;;;21.42;31.21
54455;BME280;40364;52.270;10.546;2024-01-27T04:40:21;102122.59;;;21.09;31.66
54455;BME280;40364;52.270;10.546;2024-01-27T04:42:49;102130.50;;;22.29;30.76
54455;BME280;40364;52.270;10.546;2024-01-27T04:45:16;102138.69;;;21.05;31.82
54455;BME280;40364;52.270;10.546;2024-01-27T04:47:42;102143.34;;;20.94;31.84
54455;BME280;40364;52.270;10.546;2024-01-27T04:50:09;102141.06;;;21.49;31.36
54455;BME280;40364;52.270;10.546;2024-01-27T04:52:36;102139.69;;;20.71;31.99
54455;BME280;40364;52.270;10.546;2024-01-27T04:55:02;102148.47;;;20.27;33.04
54455;BME280;40364;52.270;10.546;2024-01-27T04:57:29;102143.66;;;22.14;30.61
54455;BME280;40364;52.270;10.546;2024-01-27T04:59:58;102152.31;;;21.95;31.71
54455;BME280;40364;52.270;10.546;2024-01-27T05:02:24;102156.56;;;21.81;30.74
54455;BME280;40364;52.270;10.546;2024-01-27T05:04:51;102151.22;;;21.76;30.68
54455;BME280;40364;52.270;10.546;2024-01-27T05:07:18;102163.75;;;22.02;30.47
54455;BME280;40364;52.270;10.546;2024-01-27T05:09:44;102164.78;;;22.46;30.13
54455;BME280;40364;52.270;10.546;2024-01-27T05:12:11;102167.47;;;21.79;30.92
54455;BME280;40364;52.270;10.546;2024-01-27T05:14:42;102172.66;;;22.60;29.59
54455;BME280;40364;52.270;10.546;2024-01-27T05:17:10;102174.88;;;23.14;29.90
54455;BME280;40364;52.270;10.546;2024-01-27T05:19:37;102185.59;;;20.61;32.42
54455;BME280;40364;52.270;10.546;2024-01-27T05:22:03;102173.75;;;21.43;31.58
54455;BME280;40364;52.270;10.546;2024-01-27T05:24:30;102186.69;;;20.37;32.76
54455;BME280;40364;52.270;10.546;2024-01-27T05:26:57;102172.50;;;22.49;29.87
54455;BME280;40364;52.270;10.546;2024-01-27T05:29:23;102179.31;;;22.41;29.79
54455;BME280;40364;52.270;10.546;2024-01-27T05:31:50;102185.81;;;20.71;32.26
54455;BME280;40364;52.270;10.546;2024-01-27T05:34:18;102179.72;;;21.34;32.40
54455;BME280;40364;52.270;10.546;2024-01-27T05:36:45;102178.09;;;20.33;32.67
54455;BME280;40364;52.270;10.546;2024-01-27T05:39:11;102175.84;;;22.25;30.46
54455;BME280;40364;52.270;10.546;2024-01-27T05:41:38;102184.97;;;21.13;31.35
54455;BME280;40364;52.270;10.546;2024-01-27T05:44:04;102194.25;;;21.33;30.71
54455;BME280;40364;52.270;10.546;2024-01-27T05:46:31;102197.94;;;20.72;31.87
54455;BME280;40364;52.270;10.546;2024-01-27T05:48:57;102201.88;;;20.87;31.41
54455;BME280;40364;52.270;10.546;2024-01-27T05:51:29;102201.13;;;22.07;31.11
54455;BME280;40364;52.270;10.546;2024-01-27T05:53:56;102203.09;;;22.33;30.03
54455;BME280;40364;52.270;10.546;2024-01-27T05:56:23;102211.06;;;22.21;29.89
54455;BME280;40364;52.270;10.546;2024-01-27T05:58:49;102213.34;;;21.16;30.86
54455;BME280;40364;52.270;10.546;2024-01-27T06:01:17;102219.63;;;20.64;32.82
54455;BME280;40364;52.270;10.546;2024-01-27T06:03:44;102219.31;;;19.33;34.01
54455;BME280;40364;52.270;10.546;2024-01-27T06:06:10;102213.03;;;20.99;31.77
54455;BME280;40364;52.270;10.546;2024-01-27T06:08:38;102210.25;;;22.20;30.89
54455;BME280;40364;52.270;10.546;2024-01-27T06:11:05;102218.56;;;21.14;31.23
54455;BME280;40364;52.270;10.546;2024-01-27T06:13:32;102216.88;;;20.68;32.04
54455;BME280;40364;52.270;10.546;2024-01-27T06:15:59;102223.53;;;22.42;29.41
54455;BME280;40364;52.270;10.546;2024-01-27T06:18:26;102217.25;;;21.77;30.25
54455;BME280;40364;52.270;10.546;2024-01-27T06:20:53;102214.00;;;22.01;30.10
54455;BME280;40364;52.270;10.546;2024-01-27T06:23:19;102214.22;;;22.45;29.20
54455;BME280;40364;52.270;10.546;2024-01-27T06:25:47;102218.91;;;23.35;29.07
54455;BME280;40364;52.270;10.546;2024-01-27T06:28:14;102230.09;;;21.02;31.04
54455;BME280;40364;52.270;10.546;2024-01-27T06:30:41;102228.34;;;20.75;32.02
54455;BME280;40364;52.270;10.546;2024-01-27T06:33:07;102225.75;;;20.12;32.39
54455;BME280;40364;52.270;10.546;2024-01-27T06:35:34;102218.41;;;21.72;30.32
54455;BME280;40364;52.270;10.546;2024-01-27T06:38:01;102229.91;;;20.18;32.38
54455;BME280;40364;52.270;10.546;2024-01-27T06:40:27;102226.16;;;20.49;31.55
54455;BME280;40364;52.270;10.546;2024-01-27T06:42:55;102235.66;;;21.18;31.83
54455;BME280;40364;52.270;10.546;2024-01-27T06:45:22;102232.84;;;19.71;33.18
54455;BME280;40364;52.270;10.546;2024-01-27T06:47:49;102233.28;;;19.73;33.11
54455;BME280;40364;52.270;10.546;2024-01-27T06:50:15;102235.06;;;20.67;31.71
54455;BME280;40364;52.270;10.546;2024-01-27T06:52:42;102231.34;;;20.43;32.17
54455;BME280;40364;52.270;10.546;2024-01-27T06:55:09;102236.22;;;20.85;31.35
54455;BME280;40364;52.270;10.546;2024-01-27T06:57:36;102241.88;;;20.85;31.00
54455;BME280;40364;52.270;10.546;2024-01-27T07:00:06;102240.38;;;22.28;30.48
54455;BME280;40364;52.270;10.546;2024-01-27T07:02:33;102243.13;;;19.63;32.78
54455;BME280;40364;52.270;10.546;2024-01-27T07:05:00;102245.53;;;21.47;30.49
54455;BME280;40364;52.270;10.546;2024-01-27T07:07:27;102251.19;;;21.05;31.60
54455;BME280;40364;52.270;10.546;2024-01-27T07:09:55;102247.47;;;20.08;32.73
54455;BME280;40364;52.270;10.546;2024-01-27T07:12:22;102249.97;;;19.46;33.46
54455;BME280;40364;52.270;10.546;2024-01-27T07:14:49;102249.34;;;20.19;32.31
54455;BME280;40364;52.270;10.546;2024-01-27T07:17:17;102271.59;;;21.14;31.99
54455;BME280;40364;52.270;10.546;2024-01-27T07:19:44;102269.75;;;19.62;33.22
54455;BME280;40364;52.270;10.546;2024-01-27T07:22:11;102274.78;;;20.35;31.88
54455;BME280;40364;52.270;10.546;2024-01-27T07:24:37;102265.91;;;18.67;34.07
54455;BME280;40364;52.270;10.546;2024-01-27T07:27:04;102265.22;;;20.24;32.39
54455;BME280;40364;52.270;10.546;2024-01-27T07:29:31;102280.97;;;20.06;32.09
54455;BME280;40364;52.270;10.546;2024-01-27T07:31:57;102275.66;;;20.04;32.04
54455;BME280;40364;52.270;10.546;2024-01-27T07:34:25;102292.63;;;20.55;32.71
54455;BME280;40364;52.270;10.546;2024-01-27T07:36:52;102284.25;;;20.08;32.53
54455;BME280;40364;52.270;10.546;2024-01-27T07:39:18;102297.63;;;21.84;29.45
54455;BME280;40364;52.270;10.546;2024-01-27T07:41:45;102300.88;;;22.09;29.01
54455;BME280;40364;52.270;10.546;2024-01-27T07:44:14;102301.22;;;21.36;30.44
54455;BME280;40364;52.270;10.546;2024-01-27T07:46:41;102295.78;;;21.50;30.80
54455;BME280;40364;52.270;10.546;2024-01-27T07:49:08;102296.09;;;21.03;31.35
54455;BME280;40364;52.270;10.546;2024-01-27T07:51:38;102281.69;;;21.31;31.44
54455;BME280;40364;52.270;10.546;2024-01-27T07:54:05;102298.81;;;20.61;31.65
54455;BME280;40364;52.270;10.546;2024-01-27T07:56:31;102294.41;;;20.28;31.48
54455;BME280;40364;52.270;10.546;2024-01-27T07:58:58;102303.53;;;20.22;32.03
54455;BME280;40364;52.270;10.546;2024-01-27T08:01:25;102308.06;;;20.07;32.27
54455;BME280;40364;52.270;10.546;2024-01-27T08:03:52;102308.78;;;18.85;33.90
54455;BME280;40364;52.270;10.546;2024-01-27T08:06:27;102304.22;;;20.50;32.25
54455;BME280;40364;52.270;10.546;2024-01-27T08:08:56;102312.41;;;20.90;32.23
54455;BME280;40364;52.270;10.546;2024-01-27T08:11:22;102310.44;;;20.05;32.62
54455;BME280;40364;52.270;10.546;2024-01-27T08:13:50;102298.69;;;19.71;33.06
54455;BME280;40364;52.270;10.546;2024-01-27T08:16:17;102313.06;;;19.98;33.01
54455;BME280;40364;52.270;10.546;2024-01-27T08:18:43;102300.00;;;21.17;30.57
54455;BME280;40364;52.270;10.546;2024-01-27T08:21:11;102317.22;;;21.47;31.19
54455;BME280;40364;52.270;10.546;2024-01-27T08:23:38;102318.50;;;21.11;30.99
54455;BME280;40364;52.270;10.546;2024-01-27T08:26:06;102314.56;;;21.35;31.26
54455;BME280;40364;52.270;10.546;2024-01-27T08:28:33;102316.09;;;19.73;32.59
54455;BME280;40364;52.270;10.546;2024-01-27T08:30:59;102313.69;;;20.38;32.41
54455;BME280;40364;52.270;10.546;2024-01-27T08:33:27;102316.97;;;20.40;31.97
54455;BME280;40364;52.270;10.546;2024-01-27T08:35:53;102315.53;;;19.68;32.56
54455;BME280;40364;52.270;10.546;2024-01-27T08:38:26;102319.66;;;21.26;31.67
54455;BME280;40364;52.270;10.546;2024-01-27T08:41:10;102335.47;;;21.50;31.08
54455;BME280;40364;52.270;10.546;2024-01-27T08:43:36;102329.13;;;20.41;32.03
54455;BME280;40364;52.270;10.546;2024-01-27T08:46:03;102331.59;;;19.64;32.81
54455;BME280;40364;52.270;10.546;2024-01-27T08:48:30;102331.75;;;20.18;32.22
54455;BME280;40364;52.270;10.546;2024-01-27T08:50:56;102335.44;;;19.71;32.49
54455;BME280;40364;52.270;10.546;2024-01-27T08:53:23;102346.13;;;20.60;31.61
54455;BME280;40364;52.270;10.546;2024-01-27T08:55:50;102341.38;;;18.82;33.68
54455;BME280;40364;52.270;10.546;2024-01-27T08:58:18;102346.72;;;20.34;33.12
54455;BME280;40364;52.270;10.546;2024-01-27T09:00:44;102338.91;;;18.69;34.98
54455;BME280;40364;52.270;10.546;2024-01-27T09:03:11;102343.97;;;19.59;33.18
54455;BME280;40364;52.270;10.546;2024-01-27T09:05:39;102349.41;;;21.36;31.11
54455;BME280;40364;52.270;10.546;2024-01-27T09:08:09;102352.50;;;21.11;31.10
54455;BME280;40364;52.270;10.546;2024-01-27T09:10:35;102351.63;;;21.07;31.34
54455;BME280;40364;52.270;10.546;2024-01-27T09:13:02;102351.41;;;20.62;31.98
54455;BME280;40364;52.270;10.546;2024-01-27T09:15:31;102347.31;;;20.59;32.92
54455;BME280;40364;52.270;10.546;2024-01-27T09:17:58;102356.97;;;21.51;31.08
54455;BME280;40364;52.270;10.546;2024-01-27T09:20:24;102358.03;;;21.04;31.13
54455;BME280;40364;52.270;10.546;2024-01-27T09:22:51;102361.03;;;21.31;31.04
54455;BME280;40364;52.270;10.546;2024-01-27T09:25:18;102353.91;;;22.55;29.33
54455;BME280;40364;52.270;10.546;2024-01-27T09:27:44;102361.03;;;23.65;27.83
54455;BME280;40364;52.270;10.546;2024-01-27T09:30:12;102360.44;;;21.22;31.47
54455;BME280;40364;52.270;10.546;2024-01-27T09:35:12;102366.16;;;22.85;29.74
54455;BME280;40364;52.270;10.546;2024-01-27T09:37:39;102362.34;;;20.79;31.24
54455;BME280;40364;52.270;10.546;2024-01-27T09:40:07;102386.50;;;21.69;31.10
54455;BME280;40364;52.270;10.546;2024-01-27T09:42:34;102378.63;;;22.05;30.34
54455;BME280;40364;52.270;10.546;2024-01-27T09:48:50;102380.66;;;22.27;29.78
54455;BME280;40364;52.270;10.546;2024-01-27T09:54:28;102396.59;;;22.35;30.15
54455;BME280;40364;52.270;10.546;2024-01-27T09:56:56;102393.06;;;24.46;27.99
54455;BME280;40364;52.270;10.546;2024-01-27T09:59:24;102382.19;;;24.08;28.67
54455;BME280;40364;52.270;10.546;2024-01-27T10:01:52;102384.19;;;22.73;29.66
54455;BME280;40364;52.270;10.546;2024-01-27T10:04:19;102394.78;;;22.24;29.67
54455;BME280;40364;52.270;10.546;2024-01-27T10:06:46;102410.34;;;21.88;30.37
54455;BME280;40364;52.270;10.546;2024-01-27T10:09:15;102402.47;;;20.49;31.77
54455;BME280;40364;52.270;10.546;2024-01-27T10:11:45;102393.81;;;23.55;29.62
54455;BME280;40364;52.270;10.546;2024-01-27T10:14:12;102407.22;;;21.15;30.85
54455;BME280;40364;52.270;10.546;2024-01-27T10:16:40;102421.44;;;21.96;31.02
54455;BME280;40364;52.270;10.546;2024-01-27T10:19:12;102412.94;;;22.68;30.44
54455;BME280;40364;52.270;10.546;2024-01-27T10:21:40;102404.47;;;20.65;31.63
54455;BME280;40364;52.270;10.546;2024-01-27T10:24:07;102403.31;;;20.03;32.83
54455;BME280;40364;52.270;10.546;2024-01-27T10:26:34;102406.41;;;20.29;32.80
54455;BME280;40364;52.270;10.546;2024-01-27T10:29:02;102404.47;;;22.98;29.43
54455;BME280;40364;52.270;10.546;2024-01-27T10:31:29;102401.81;;;22.33;30.70
54455;BME280;40364;52.270;10.546;2024-01-27T10:33:57;102400.03;;;24.05;28.17
54455;BME280;40364;52.270;10.546;2024-01-27T10:36:24;102392.44;;;23.75;27.70
54455;BME280;40364;52.270;10.546;2024-01-27T10:38:51;102397.59;;;23.33;27.93
54455;BME280;40364;52.270;10.546;2024-01-27T10:41:21;102407.69;;;23.27;29.17
54455;BME280;40364;52.270;10.546;2024-01-27T10:43:50;102409.41;;;21.03;32.02
54455;BME280;40364;52.270;10.546;2024-01-27T10:46:20;102399.16;;;23.60;29.06
54455;BME280;40364;52.270;10.546;2024-01-27T10:48:50;102409.09;;;25.31;27.26
54455;BME280;40364;52.270;10.546;2024-01-27T10:51:22;102405.81;;;25.29;26.92
54455;BME280;40364;52.270;10.546;2024-01-27T10:53:53;102408.19;;;23.36;28.61
54455;BME280;40364;52.270;10.546;2024-01-27T10:56:21;102414.41;;;21.67;30.76
54455;BME280;40364;52.270;10.546;2024-01-27T10:58:51;102412.88;;;23.84;28.95
54455;BME280;40364;52.270;10.546;2024-01-27T11:03:49;102412.66;;;22.50;29.58
54455;BME280;40364;52.270;10.546;2024-01-27T11:06:19;102398.16;;;22.56;29.57
54455;BME280;40364;52.270;10.546;2024-01-27T11:08:50;102394.91;;;22.08;30.06
54455;BME280;40364;52.270;10.546;2024-01-27T11:11:18;102384.25;;;22.77;29.86
54455;BME280;40364;52.270;10.546;2024-01-27T11:13:46;102386.78;;;22.29;29.78
54455;BME280;40364;52.270;10.546;2024-01-27T11:16:17;102380.38;;;23.18;29.62
54455;BME280;40364;52.270;10.546;2024-01-27T11:18:46;102384.41;;;25.99;26.45
54455;BME280;40364;52.270;10.546;2024-01-27T11:21:15;102392.53;;;22.59;29.35
54455;BME280;40364;52.270;10.546;2024-01-27T11:23:42;102390.22;;;24.46;27.44
54455;BME280;40364;52.270;10.546;2024-01-27T11:26:10;102393.28;;;20.37;32.61
54455;BME280;40364;52.270;10.546;2024-01-27T11:28:39;102391.13;;;22.76;29.43
54455;BME280;40364;52.270;10.546;2024-01-27T11:31:07;102391.72;;;26.00;26.12
54455;BME280;40364;52.270;10.546;2024-01-27T11:33:41;102386.03;;;23.85;28.22
54455;BME280;40364;52.270;10.546;2024-01-27T11:36:18;102398.25;;;26.71;25.33
54455;BME280;40364;52.270;10.546;2024-01-27T11:38:46;102393.59;;;23.37;28.61
54455;BME280;40364;52.270;10.546;2024-01-27T11:41:12;102396.19;;;24.27;27.21
54455;BME280;40364;52.270;10.546;2024-01-27T11:43:39;102390.66;;;22.70;28.61
54455;BME280;40364;52.270;10.546;2024-01-27T11:46:06;102389.75;;;23.53;28.96
54455;BME280;40364;52.270;10.546;2024-01-27T11:48:33;102377.53;;;23.52;28.59
54455;BME280;40364;52.270;10.546;2024-01-27T11:51:12;102389.97;;;24.66;27.93
54455;BME280;40364;52.270;10.546;2024-01-27T11:53:39;102392.81;;;24.14;27.30
54455;BME280;40364;52.270;10.546;2024-01-27T11:56:06;102396.47;;;24.63;26.96
54455;BME280;40364;52.270;10.546;2024-01-27T11:58:33;102401.53;;;26.13;25.46
54455;BME280;40364;52.270;10.546;2024-01-27T12:00:59;102388.09;;;26.10;25.29
54455;BME280;40364;52.270;10.546;2024-01-27T12:03:27;102379.91;;;26.30;24.72
54455;BME280;40364;52.270;10.546;2024-01-27T12:05:54;102390.75;;;27.31;24.34
54455;BME280;40364;52.270;10.546;2024-01-27T12:08:22;102388.03;;;26.81;25.32
54455;BME280;40364;52.270;10.546;2024-01-27T12:10:49;102395.53;;;24.00;27.19
54455;BME280;40364;52.270;10.546;2024-01-27T12:13:16;102386.22;;;27.33;23.90
54455;BME280;40364;52.270;10.546;2024-01-27T12:15:43;102397.88;;;25.95;25.27
54455;BME280;40364;52.270;10.546;2024-01-27T12:18:09;102392.81;;;25.42;25.58
54455;BME280;40364;52.270;10.546;2024-01-27T12:20:37;102386.16;;;23.59;27.11
54455;BME280;40364;52.270;10.546;2024-01-27T12:23:05;102394.25;;;23.57;28.02
54455;BME280;40364;52.270;10.546;2024-01-27T12:25:33;102407.06;;;23.10;28.69
54455;BME280;40364;52.270;10.546;2024-01-27T12:28:05;102398.78;;;24.46;27.10
54455;BME280;40364;52.270;10.546;2024-01-27T12:30:33;102397.78;;;23.13;27.92
54455;BME280;40364;52.270;10.546;2024-01-27T12:32:59;102413.34;;;23.53;27.80
54455;BME280;40364;52.270;10.546;2024-01-27T12:35:26;102416.88;;;23.80;27.17
54455;BME280;40364;52.270;10.546;2024-01-27T12:37:54;102409.72;;;24.37;26.93
54455;BME280;40364;52.270;10.546;2024-01-27T12:40:21;102412.56;;;24.37;26.80
54455;BME280;40364;52.270;10.546;2024-01-27T12:42:50;102408.19;;;25.16;26.07
54455;BME280;40364;52.270;10.546;2024-01-27T12:45:17;102412.75;;;24.14;26.42
54455;BME280;40364;52.270;10.546;2024-01-27T12:47:44;102411.28;;;23.20;27.72
54455;BME280;40364;52.270;10.546;2024-01-27T12:50:11;102424.22;;;24.73;26.11
54455;BME280;40364;52.270;10.546;2024-01-27T12:52:38;102416.16;;;24.89;26.24